首页
METAR-TAF:

METAR-TAF

机场 :

梅肯, 喬治亞, 美国

纬度: 32-41-16N, 经度: 083-39-16W, 海拔: 107米

当前天气观测

该预报发布于42分钟前的10:09 UTC
风速4节,风向
温度 22°C
湿度 88%
气压 1016 hPa
能見度: 16.1公里
多云层高于1300英尺
阴天层高于2400英尺

METAR: KMCN 261009Z AUTO 09004KT 10SM BKN013 OVC024 22/20 A3001 RMK AO2 RAE06 P0001 T02170200

时间: 06:51 (10:51 UTC)

预报

该预报发布于41分钟前的10:10 UTC
预报有效从26日的 10点(UTC)到 27日的 06点(UTC)
风速8节,风向
能見度: 10公里
多云层高于1500英尺
阴天层高于2500英尺
附近有阵雨
从 26日的 1500点(UTC)
风速9节,风向
能見度: 9.7公里
阴天层高于900英尺
小阵雨, 轻雾
短暂存在
从 26日的 20点(UTC)到 26日的 24点(UTC)
能見度: 6.4公里
多云层高于1500英尺, 积雨云.
雷暴, 小雨
从 27日的 0200点(UTC)
风速7节,风向东转东北
能見度: 8.0公里
阴天层高于600英尺
轻雾, 附近有阵雨

TAF: KMCN 261010Z 2610/2706 09008KT P6SM VCSH BKN015 OVC025 FM261500 08009KT 6SM -SHRA BR OVC009 TEMPO 2620/2624 4SM -TSRA BKN015CB FM270200 07007KT 5SM BR VCSH OVC006

超过4000个机场的气象观测和天气预报(METAR&TAF报告)。

可查询的气象台以黄色和红色小点在地图上表示。

将鼠标移到小点上方,可查看气象台名称。

然后点击查看天气观测和预报。

如需切换地图:点击带黑十字的绿色按钮放大地图;点击带横线的绿色按钮缩小地图;或者点击绿色箭头查看邻近地区的地图。


METAR-TAF: